Time;durP1;ratioP1;P1;durP2;ratioP2;P2;SDS_P1;SDS_P2;PMS_P1;PMS_P2;Temp;Humidity;BMP_temperature;BMP_pressure;BME280_temperature;BME280_humidity;BME280_pressure;Samples;Min_cycle;Max_cycle;Signal;HPM_P1;HPM_P2
2023/11/28 00:00:34;;;;;;;1.55;1.42;;;4.10;99.90;;;;;;5060959;28;20036;-91
2023/11/28 00:02:59;;;;;;;1.42;1.33;;;4.10;99.90;;;;;;5062351;28;20031;-91
2023/11/28 00:05:25;;;;;;;1.83;1.73;;;4.10;99.90;;;;;;5060463;28;20045;-91
2023/11/28 00:07:51;;;;;;;1.45;1.35;;;4.20;99.90;;;;;;5060170;28;20036;-92
2023/11/28 00:10:17;;;;;;;1.58;1.17;;;4.20;99.90;;;;;;5058267;28;20021;-93
2023/11/28 00:12:43;;;;;;;1.85;1.75;;;4.20;99.90;;;;;;5060514;28;20442;-92
2023/11/28 00:15:10;;;;;;;1.15;1.05;;;4.20;99.90;;;;;;5060135;28;20017;-91
2023/11/28 00:17:38;;;;;;;1.40;1.05;;;4.20;99.90;;;;;;5057823;28;20067;-91
2023/11/28 00:20:05;;;;;;;1.42;1.33;;;4.20;99.90;;;;;;5049967;28;20028;-91
2023/11/28 00:22:31;;;;;;;1.67;1.20;;;4.30;99.90;;;;;;5054168;28;20021;-93
2023/11/28 00:24:57;;;;;;;1.42;1.33;;;4.30;99.90;;;;;;5059023;28;20025;-92
2023/11/28 00:27:22;;;;;;;1.70;1.60;;;4.40;99.90;;;;;;5051703;28;20024;-93
2023/11/28 00:29:49;;;;;;;1.67;1.58;;;4.40;99.90;;;;;;5033305;28;20021;-92
2023/11/28 00:32:15;;;;;;;1.83;1.73;;;4.40;99.90;;;;;;5061816;28;20021;-92
2023/11/28 00:34:41;;;;;;;1.85;1.00;;;4.50;99.90;;;;;;5064804;28;20029;-92
2023/11/28 00:37:10;;;;;;;1.58;1.48;;;4.50;99.90;;;;;;5064132;28;20025;-92
2023/11/28 00:39:36;;;;;;;1.67;1.58;;;4.50;99.90;;;;;;5045858;28;20095;-92
2023/11/28 00:42:03;;;;;;;1.65;1.00;;;4.50;99.90;;;;;;5040005;28;20030;-92
2023/11/28 00:44:30;;;;;;;3.80;3.60;;;4.60;99.90;;;;;;5046301;28;20035;-92
2023/11/28 00:46:57;;;;;;;1.42;1.30;;;4.60;99.90;;;;;;5063939;28;20031;-91
2023/11/28 00:49:23;;;;;;;1.75;1.65;;;4.60;99.90;;;;;;5045236;28;20064;-92
2023/11/28 00:51:49;;;;;;;2.38;2.28;;;4.50;99.90;;;;;;5061935;28;20515;-91
2023/11/28 00:54:14;;;;;;;1.95;1.85;;;4.60;99.90;;;;;;5038678;28;20462;-91
2023/11/28 00:56:40;;;;;;;1.38;1.38;;;4.60;99.90;;;;;;5067442;28;20017;-92
2023/11/28 00:59:06;;;;;;;1.20;1.20;;;4.60;99.90;;;;;;5044967;28;20081;-91
2023/11/28 01:01:32;;;;;;;1.80;1.70;;;4.70;99.90;;;;;;5063380;28;20045;-91
2023/11/28 01:03:57;;;;;;;1.88;1.77;;;4.70;99.90;;;;;;5055666;28;20032;-91
2023/11/28 01:06:23;;;;;;;1.60;1.42;;;4.70;99.90;;;;;;5061993;28;20032;-92
2023/11/28 01:08:49;;;;;;;1.40;1.30;;;4.70;99.90;;;;;;5063149;28;20120;-92
2023/11/28 01:11:15;;;;;;;1.77;1.67;;;4.70;99.90;;;;;;5063587;28;20025;-92
2023/11/28 01:13:41;;;;;;;1.52;1.42;;;4.70;99.90;;;;;;5062707;28;20028;-91
2023/11/28 01:16:10;;;;;;;1.58;1.48;;;4.70;99.90;;;;;;5043224;28;20029;-92
2023/11/28 01:18:36;;;;;;;3.05;1.52;;;4.80;99.90;;;;;;5061555;28;20029;-92
2023/11/28 01:21:10;;;;;;;1.45;1.35;;;4.80;99.90;;;;;;5057564;28;20024;-95
2023/11/28 01:23:36;;;;;;;1.35;1.25;;;4.80;99.90;;;;;;5045580;28;20052;-92
2023/11/28 01:26:02;;;;;;;2.03;1.75;;;4.80;99.90;;;;;;5061717;28;20017;-92
2023/11/28 01:28:28;;;;;;;1.42;1.33;;;4.70;99.90;;;;;;5061615;28;20029;-91
2023/11/28 01:30:54;;;;;;;1.13;0.88;;;4.80;99.90;;;;;;5047874;28;20033;-93
2023/11/28 01:33:19;;;;;;;2.03;1.88;;;4.80;99.90;;;;;;5044467;28;20032;-92
2023/11/28 01:35:45;;;;;;;2.83;1.80;;;4.80;99.90;;;;;;5063402;28;20037;-92
2023/11/28 01:38:11;;;;;;;1.70;1.60;;;4.80;99.90;;;;;;5064234;28;20017;-93
2023/11/28 01:40:37;;;;;;;1.50;1.33;;;4.80;99.90;;;;;;5062088;28;20021;-93
2023/11/28 01:43:03;;;;;;;2.90;1.70;;;4.80;99.90;;;;;;5045200;28;20021;-92
2023/11/28 01:45:28;;;;;;;1.85;1.75;;;4.90;99.90;;;;;;5055641;28;20037;-91
2023/11/28 01:47:57;;;;;;;1.63;1.50;;;4.90;99.90;;;;;;5045259;28;20031;-92
2023/11/28 01:50:31;;;;;;;1.52;1.42;;;4.90;99.90;;;;;;5061806;28;20475;-93
2023/11/28 01:52:57;;;;;;;1.88;1.77;;;4.90;99.90;;;;;;5044222;28;20071;-91
2023/11/28 01:55:22;;;;;;;1.50;1.20;;;4.90;99.90;;;;;;5061660;28;20037;-92
2023/11/28 01:57:54;;;;;;;1.67;1.58;;;4.80;99.90;;;;;;5061606;28;20049;-93
2023/11/28 02:00:20;;;;;;;2.20;2.00;;;4.80;99.90;;;;;;5048418;28;20055;-92
2023/11/28 02:02:46;;;;;;;1.77;1.67;;;4.80;99.90;;;;;;5061381;28;20118;-93
2023/11/28 02:05:12;;;;;;;1.92;1.83;;;4.80;99.90;;;;;;5062400;28;20036;-93
2023/11/28 02:07:39;;;;;;;1.52;1.38;;;4.80;99.90;;;;;;5060610;28;20028;-92
2023/11/28 02:10:05;;;;;;;1.65;1.52;;;4.80;99.90;;;;;;5036893;28;20052;-92
2023/11/28 02:12:32;;;;;;;1.52;1.42;;;4.80;99.90;;;;;;5052725;28;20116;-93
2023/11/28 02:15:07;;;;;;;1.70;1.60;;;4.90;99.90;;;;;;5061821;28;20039;-92
2023/11/28 02:17:32;;;;;;;2.15;1.95;;;4.90;99.90;;;;;;5060110;28;20067;-93
2023/11/28 02:19:58;;;;;;;1.40;1.30;;;4.90;99.90;;;;;;5060020;28;20025;-92
2023/11/28 02:22:25;;;;;;;1.48;1.38;;;4.90;99.90;;;;;;5060112;28;20032;-92
2023/11/28 02:24:54;;;;;;;1.90;1.80;;;4.90;99.90;;;;;;5042049;28;20032;-91
2023/11/28 02:27:20;;;;;;;1.92;1.75;;;4.90;99.90;;;;;;5059972;28;20093;-91
2023/11/28 02:29:46;;;;;;;1.65;1.48;;;5.00;99.90;;;;;;5059775;28;20071;-91
2023/11/28 02:32:12;;;;;;;1.10;1.02;;;5.00;99.90;;;;;;5056531;28;20021;-92
2023/11/28 02:34:37;;;;;;;1.40;1.30;;;5.00;99.90;;;;;;5043547;28;20403;-93
2023/11/28 02:37:03;;;;;;;1.98;1.40;;;5.10;99.90;;;;;;5043418;28;20036;-92
2023/11/28 02:39:29;;;;;;;1.45;1.35;;;5.00;99.90;;;;;;5061342;28;20017;-91
2023/11/28 02:41:55;;;;;;;2.55;1.63;;;5.00;99.90;;;;;;5043113;28;20047;-91
2023/11/28 02:44:20;;;;;;;1.40;1.33;;;5.00;99.90;;;;;;5061279;28;20048;-91
2023/11/28 02:46:46;;;;;;;1.77;1.67;;;5.00;99.90;;;;;;5061531;28;20025;-93
2023/11/28 02:49:12;;;;;;;2.55;2.35;;;5.00;99.90;;;;;;5042981;28;20029;-93
2023/11/28 02:51:47;;;;;;;2.63;2.22;;;5.00;99.90;;;;;;5060005;28;20036;-91
2023/11/28 02:54:13;;;;;;;;;;;5.10;99.90;;;;;;5041533;28;20033;-91
2023/11/28 02:56:38;;;;;;;1.63;1.25;;;5.10;99.90;;;;;;5040381;28;20363;-92
2023/11/28 02:59:04;;;;;;;1.77;1.67;;;5.10;99.90;;;;;;5030085;28;20028;-92
2023/11/28 03:01:30;;;;;;;1.88;1.77;;;5.10;99.90;;;;;;5049911;28;20059;-91
2023/11/28 03:03:58;;;;;;;2.05;1.70;;;5.10;99.90;;;;;;5043455;28;20016;-92
2023/11/28 03:06:24;;;;;;;2.28;2.08;;;5.10;99.90;;;;;;5042344;28;20307;-91
2023/11/28 03:08:50;;;;;;;1.98;1.77;;;5.20;99.90;;;;;;5060295;28;20017;-93
2023/11/28 03:11:15;;;;;;;1.40;1.30;;;5.20;99.90;;;;;;5059466;28;20033;-93
2023/11/28 03:13:41;;;;;;;2.20;2.00;;;5.10;99.90;;;;;;5059114;28;20021;-92
2023/11/28 03:16:07;;;;;;;2.28;1.65;;;5.20;99.90;;;;;;5058786;28;20025;-91
2023/11/28 03:18:33;;;;;;;1.83;1.73;;;5.10;99.90;;;;;;5041355;28;20025;-92
2023/11/28 03:20:59;;;;;;;2.45;2.25;;;5.10;99.90;;;;;;5060018;28;20013;-91
2023/11/28 03:23:25;;;;;;;2.20;2.00;;;5.20;99.90;;;;;;5054338;28;20100;-91
2023/11/28 03:25:50;;;;;;;2.95;2.75;;;5.20;99.90;;;;;;5059861;28;20046;-92
2023/11/28 03:28:16;;;;;;;1.20;1.10;;;5.20;99.90;;;;;;5060054;28;20021;-91
2023/11/28 03:30:44;;;;;;;2.40;2.20;;;5.20;99.90;;;;;;5060964;28;20029;-93
2023/11/28 03:33:10;;;;;;;4.07;2.80;;;5.20;99.90;;;;;;5061503;28;20073;-92
2023/11/28 03:35:35;;;;;;;1.60;1.42;;;5.20;99.90;;;;;;5044990;28;20021;-92
2023/11/28 03:38:01;;;;;;;3.42;2.92;;;5.20;99.90;;;;;;5053132;28;20024;-92
2023/11/28 03:40:27;;;;;;;3.38;3.08;;;5.20;99.90;;;;;;5044627;28;20040;-92
2023/11/28 03:42:52;;;;;;;2.55;1.88;;;5.20;99.90;;;;;;5058694;28;20013;-91
2023/11/28 03:45:18;;;;;;;2.50;2.15;;;5.20;99.90;;;;;;5059929;28;20112;-91
2023/11/28 03:47:44;;;;;;;2.20;1.90;;;5.20;99.90;;;;;;5059087;28;20053;-96
2023/11/28 03:50:11;;;;;;;1.98;1.63;;;5.20;99.90;;;;;;5059047;28;20032;-92
2023/11/28 03:52:36;;;;;;;3.80;3.35;;;5.30;99.90;;;;;;5058573;28;20082;-92
2023/11/28 03:55:02;;;;;;;2.45;2.25;;;5.30;99.90;;;;;;5054843;28;20032;-91
2023/11/28 03:57:28;;;;;;;2.97;2.30;;;5.30;99.90;;;;;;5058606;28;20080;-91
2023/11/28 03:59:54;;;;;;;3.80;2.80;;;5.20;99.90;;;;;;5059330;28;20527;-92
2023/11/28 04:02:20;;;;;;;2.63;2.42;;;5.20;99.90;;;;;;5058625;28;20040;-92
2023/11/28 04:04:45;;;;;;;3.08;2.47;;;5.30;99.90;;;;;;5041042;28;20092;-91
2023/11/28 04:07:11;;;;;;;3.13;2.83;;;5.20;99.90;;;;;;5059684;28;20028;-92
2023/11/28 04:09:38;;;;;;;2.80;2.55;;;5.20;99.90;;;;;;5054563;28;20039;-92
2023/11/28 04:12:07;;;;;;;2.63;2.42;;;5.20;99.90;;;;;;5060161;28;20033;-92
2023/11/28 04:14:33;;;;;;;2.70;2.50;;;5.10;99.90;;;;;;5061248;28;20112;-91
2023/11/28 04:16:59;;;;;;;2.83;2.50;;;5.10;99.90;;;;;;5060650;28;20029;-92
2023/11/28 04:19:24;;;;;;;3.15;2.53;;;5.20;99.90;;;;;;5043084;28;20025;-92
2023/11/28 04:21:50;;;;;;;5.15;3.88;;;5.20;99.90;;;;;;5060394;28;20032;-91
2023/11/28 04:24:16;;;;;;;4.53;4.03;;;5.10;99.90;;;;;;5062029;28;20396;-91
2023/11/28 04:26:42;;;;;;;3.15;2.58;;;5.10;99.90;;;;;;5044834;28;20063;-91
2023/11/28 04:29:12;;;;;;;3.47;3.10;;;5.10;99.90;;;;;;5062883;28;20025;-91
2023/11/28 04:31:38;;;;;;;4.55;3.85;;;5.10;99.90;;;;;;5061950;28;20154;-92
2023/11/28 04:34:03;;;;;;;4.28;3.10;;;5.10;99.90;;;;;;5063509;28;20029;-92
2023/11/28 04:36:31;;;;;;;2.83;1.75;;;5.00;99.90;;;;;;5062777;28;20257;-93
2023/11/28 04:38:59;;;;;;;4.75;3.40;;;5.00;99.90;;;;;;5062376;28;20019;-93
2023/11/28 04:41:25;;;;;;;3.60;2.30;;;5.10;99.90;;;;;;5062990;28;20483;-91
2023/11/28 04:43:51;;;;;;;2.72;2.47;;;5.00;99.90;;;;;;5064441;28;20025;-92
2023/11/28 04:46:16;;;;;;;2.50;2.28;;;5.00;99.90;;;;;;5045710;28;20029;-93
2023/11/28 04:48:42;;;;;;;2.80;2.17;;;5.10;99.90;;;;;;5062330;28;20029;-92
2023/11/28 04:51:08;;;;;;;3.38;3.08;;;5.00;99.90;;;;;;5059723;28;20025;-92
2023/11/28 04:53:34;;;;;;;5.55;3.42;;;5.00;99.90;;;;;;5062570;28;20703;-91
2023/11/28 04:55:59;;;;;;;3.03;2.70;;;5.00;99.90;;;;;;5062368;28;20074;-92
2023/11/28 04:58:25;;;;;;;4.13;2.42;;;5.00;99.90;;;;;;5061175;28;20021;-92
2023/11/28 05:00:51;;;;;;;2.90;2.53;;;4.90;99.90;;;;;;5048868;28;20021;-92
2023/11/28 05:03:17;;;;;;;2.80;1.95;;;4.90;99.90;;;;;;5063120;28;20017;-92
2023/11/28 05:05:43;;;;;;;3.65;3.20;;;4.90;99.90;;;;;;5064911;28;20034;-94
2023/11/28 05:08:08;;;;;;;3.03;2.50;;;4.90;99.90;;;;;;5061971;28;20104;-93
2023/11/28 05:10:34;;;;;;;3.15;2.83;;;4.90;99.90;;;;;;5044696;28;20083;-93
2023/11/28 05:13:00;;;;;;;2.42;1.90;;;4.90;99.90;;;;;;5061908;28;20551;-93
2023/11/28 05:15:25;;;;;;;3.25;2.67;;;4.90;99.90;;;;;;5049483;28;20059;-92
2023/11/28 05:17:51;;;;;;;2.63;1.33;;;4.90;99.90;;;;;;5061632;28;20078;-93
2023/11/28 05:20:19;;;;;;;2.20;1.95;;;4.90;99.90;;;;;;5057953;28;20025;-93
2023/11/28 05:22:45;;;;;;;2.17;2.05;;;4.90;99.90;;;;;;5062515;28;20041;-93
2023/11/28 05:25:10;;;;;;;2.22;1.88;;;4.90;99.90;;;;;;5061654;28;20017;-91
2023/11/28 05:27:36;;;;;;;2.10;1.88;;;4.80;99.90;;;;;;5043958;28;20056;-92
2023/11/28 05:30:02;;;;;;;2.38;2.17;;;4.80;99.90;;;;;;5041266;28;20032;-93
2023/11/28 05:32:27;;;;;;;4.30;2.45;;;4.80;99.90;;;;;;5059406;28;20039;-93
2023/11/28 05:34:53;;;;;;;3.63;3.35;;;4.80;99.90;;;;;;5062173;28;20133;-93
2023/11/28 05:37:23;;;;;;;4.05;2.85;;;4.80;99.90;;;;;;5062468;28;20078;-93
2023/11/28 05:39:51;;;;;;;2.58;2.38;;;4.80;99.90;;;;;;5044334;28;20024;-93
2023/11/28 05:42:17;;;;;;;3.17;2.85;;;4.70;99.90;;;;;;5055556;28;20017;-94
2023/11/28 05:44:43;;;;;;;5.03;4.18;;;4.70;99.90;;;;;;5045167;28;20029;-93
2023/11/28 05:47:09;;;;;;;2.95;2.58;;;4.70;99.90;;;;;;5064048;28;20088;-94
2023/11/28 05:49:35;;;;;;;3.13;2.92;;;4.60;99.90;;;;;;5044328;28;20031;-92
2023/11/28 05:52:01;;;;;;;12.70;10.43;;;4.70;99.90;;;;;;5063551;28;20069;-93
2023/11/28 05:54:28;;;;;;;2.22;2.03;;;4.60;99.90;;;;;;5063314;28;20029;-92
2023/11/28 05:56:54;;;;;;;2.92;2.70;;;4.50;99.90;;;;;;5059869;28;20029;-92
2023/11/28 05:59:19;;;;;;;4.22;3.92;;;4.50;99.90;;;;;;5054549;28;20074;-92
2023/11/28 06:02:00;;;;;;;5.40;4.90;;;4.50;99.90;;;;;;5051430;28;20118;-92
2023/11/28 06:04:26;;;;;;;2.78;2.53;;;4.50;99.90;;;;;;5039330;28;20112;-92
2023/11/28 06:06:52;;;;;;;3.35;3.15;;;4.40;99.90;;;;;;5060920;28;20021;-92
2023/11/28 06:09:18;;;;;;;2.00;1.90;;;4.40;99.90;;;;;;5061269;28;20021;-93
2023/11/28 06:11:44;;;;;;;2.22;2.03;;;4.40;99.90;;;;;;5051407;28;20048;-92
2023/11/28 06:14:10;;;;;;;1.70;1.60;;;4.30;99.90;;;;;;5060742;28;20032;-92
2023/11/28 06:16:35;;;;;;;1.77;1.63;;;4.40;99.90;;;;;;5061033;28;20020;-91
2023/11/28 06:19:03;;;;;;;1.52;1.45;;;4.30;99.90;;;;;;5061451;28;20020;-93
2023/11/28 06:21:29;;;;;;;1.63;1.52;;;4.20;99.90;;;;;;5058344;28;20031;-93
2023/11/28 06:23:54;;;;;;;1.40;1.30;;;4.10;99.90;;;;;;5061458;28;20057;-92
2023/11/28 06:26:20;;;;;;;3.88;3.53;;;4.10;99.90;;;;;;5057707;28;20029;-93
2023/11/28 06:28:46;;;;;;;1.77;1.67;;;4.00;99.90;;;;;;5061047;28;20106;-91
2023/11/28 06:31:11;;;;;;;1.27;1.20;;;4.00;99.90;;;;;;5059124;28;20021;-92
2023/11/28 06:33:37;;;;;;;2.35;1.40;;;3.90;99.90;;;;;;5054613;28;20025;-93
2023/11/28 06:36:04;;;;;;;8.32;5.97;;;3.90;99.90;;;;;;5062399;28;20084;-92
2023/11/28 06:38:30;;;;;;;1.48;1.42;;;3.90;99.90;;;;;;5062819;28;20021;-92
2023/11/28 06:40:55;;;;;;;1.45;1.35;;;3.80;99.90;;;;;;5043036;28;20028;-93
2023/11/28 06:43:21;;;;;;;1.92;1.83;;;3.80;99.90;;;;;;5037213;28;20031;-91
2023/11/28 06:45:49;;;;;;;1.58;1.48;;;3.70;99.90;;;;;;5044703;28;20036;-93
2023/11/28 06:48:15;;;;;;;1.52;1.48;;;3.70;99.90;;;;;;5061819;28;20033;-92
2023/11/28 06:50:43;;;;;;;1.63;1.52;;;3.70;99.90;;;;;;5057343;28;20029;-94
2023/11/28 06:53:09;;;;;;;1.35;1.25;;;3.70;99.90;;;;;;5062634;28;20043;-92
2023/11/28 06:55:41;;;;;;;1.15;1.08;;;3.60;99.90;;;;;;5063807;28;20108;-94
2023/11/28 06:58:17;;;;;;;1.58;1.58;;;3.60;99.90;;;;;;5030001;28;20029;-92
2023/11/28 07:00:52;;;;;;;2.92;2.72;;;3.60;99.90;;;;;;5046033;28;20199;-92
2023/11/28 07:03:31;;;;;;;2.08;1.88;;;3.60;99.90;;;;;;5046098;28;20040;-91
2023/11/28 07:05:57;;;;;;;3.00;2.25;;;3.60;99.90;;;;;;5032998;28;20043;-93
2023/11/28 07:08:23;;;;;;;1.65;1.55;;;3.60;99.90;;;;;;5029712;28;20033;-94
2023/11/28 07:10:58;;;;;;;1.80;1.70;;;3.50;99.90;;;;;;5047562;28;20033;-92
2023/11/28 07:13:40;;;;;;;1.45;1.42;;;3.50;99.90;;;;;;5033092;28;20037;-94
2023/11/28 07:16:07;;;;;;;2.00;1.90;;;3.50;99.90;;;;;;5050616;28;20033;-94
2023/11/28 07:18:38;;;;;;;1.42;1.42;;;3.50;99.90;;;;;;5029760;28;20021;-93
2023/11/28 07:21:27;;;;;;;1.58;1.48;;;3.50;99.90;;;;;;5029965;28;20035;-94
2023/11/28 07:23:52;;;;;;;1.77;1.67;;;3.40;99.90;;;;;;5046072;28;20044;-93
2023/11/28 07:26:24;;;;;;;2.45;2.35;;;3.40;99.90;;;;;;5050653;28;20041;-92
2023/11/28 07:28:50;;;;;;;1.67;1.58;;;3.40;99.90;;;;;;5029836;28;20097;-94
2023/11/28 07:31:17;;;;;;;1.63;1.52;;;3.40;99.90;;;;;;5031786;28;20039;-93
2023/11/28 07:33:51;;;;;;;1.73;1.67;;;3.40;99.90;;;;;;5049241;28;20120;-92
2023/11/28 07:36:47;;;;;;;3.20;2.05;;;3.40;99.90;;;;;;5051315;28;20037;-92
2023/11/28 07:39:20;;;;;;;2.08;1.98;;;3.40;99.90;;;;;;4998008;28;20041;-93
2023/11/28 07:41:46;;;;;;;2.25;2.15;;;3.40;99.90;;;;;;5050746;28;20044;-92
2023/11/28 07:44:11;;;;;;;1.67;1.58;;;3.30;99.90;;;;;;5028225;28;20033;-94
2023/11/28 07:46:43;;;;;;;1.67;1.58;;;3.30;99.90;;;;;;5043903;28;20021;-92
2023/11/28 07:49:09;;;;;;;2.15;2.05;;;3.30;99.90;;;;;;5048058;28;20020;-93
2023/11/28 07:51:44;;;;;;;2.33;1.70;;;3.30;99.90;;;;;;5048871;28;20021;-93
2023/11/28 07:54:11;;;;;;;2.03;1.92;;;3.30;99.90;;;;;;5027587;28;20033;-94
2023/11/28 07:56:45;;;;;;;2.25;2.15;;;3.30;99.90;;;;;;5025451;28;20691;-94
2023/11/28 07:59:14;;;;;;;1.48;1.38;;;3.30;99.90;;;;;;5049059;28;20048;-93
2023/11/28 08:01:40;;;;;;;2.05;1.88;;;3.20;99.90;;;;;;5029528;28;20029;-93
2023/11/28 08:04:11;;;;;;;2.00;1.90;;;3.20;99.90;;;;;;5046012;28;20490;-93
2023/11/28 08:06:37;;;;;;;1.77;1.67;;;3.20;99.90;;;;;;5043911;28;20017;-93
2023/11/28 08:09:07;;;;;;;1.48;1.38;;;3.20;99.90;;;;;;5049642;28;20021;-92
2023/11/28 08:11:34;;;;;;;1.60;1.50;;;3.20;99.90;;;;;;5030311;28;20085;-93
2023/11/28 08:14:07;;;;;;;1.98;1.88;;;3.20;99.90;;;;;;5032657;28;20037;-93
2023/11/28 08:16:33;;;;;;;2.92;2.83;;;3.20;99.90;;;;;;5048003;28;20116;-92
2023/11/28 08:18:58;;;;;;;2.08;1.98;;;3.20;99.90;;;;;;5048994;28;20043;-93
2023/11/28 08:21:25;;;;;;;2.13;2.03;;;3.20;99.90;;;;;;5048134;28;20136;-93
2023/11/28 08:23:51;;;;;;;2.15;1.30;;;3.10;99.90;;;;;;5047940;28;20657;-93
2023/11/28 08:26:29;;;;;;;1.50;1.40;;;3.20;99.90;;;;;;5027690;28;20048;-93
2023/11/28 08:29:04;;;;;;;1.88;1.77;;;3.20;99.90;;;;;;5047503;28;20025;-93
2023/11/28 08:31:30;;;;;;;1.35;1.25;;;3.20;99.90;;;;;;5030619;28;20373;-92
2023/11/28 08:34:10;;;;;;;1.70;1.60;;;3.20;99.90;;;;;;5051187;28;20072;-94
2023/11/28 08:36:35;;;;;;;1.55;1.45;;;3.20;99.90;;;;;;5028314;28;20100;-94
2023/11/28 08:39:01;;;;;;;1.33;1.33;;;3.20;99.90;;;;;;5047848;28;20072;-93
2023/11/28 08:41:41;;;;;;;1.35;1.35;;;3.10;99.90;;;;;;5047551;28;20033;-93
2023/11/28 08:44:07;;;;;;;1.55;1.45;;;3.10;99.90;;;;;;5044604;28;20037;-92
2023/11/28 08:46:35;;;;;;;1.63;1.52;;;3.10;99.90;;;;;;5044895;28;20093;-92
2023/11/28 08:49:11;;;;;;;1.30;1.27;;;3.10;99.90;;;;;;5031516;28;20089;-92
2023/11/28 08:55:21;;;;;;;12.52;7.97;;;3.10;99.90;;;;;;4985468;28;20894;-93
2023/11/28 08:57:48;;;;;;;2.65;2.55;;;3.10;99.90;;;;;;4987909;28;20030;-93
2023/11/28 09:00:30;;;;;;;2.17;1.75;;;3.10;99.90;;;;;;5023162;28;20037;-92
2023/11/28 09:02:58;;;;;;;2.13;2.03;;;3.10;99.90;;;;;;5048314;28;20024;-92
2023/11/28 09:05:24;;;;;;;2.55;2.45;;;3.10;99.90;;;;;;5030430;28;20040;-93
2023/11/28 09:08:06;;;;;;;1.92;1.83;;;3.10;99.90;;;;;;5049722;28;20033;-93
2023/11/28 09:10:39;;;;;;;3.47;3.28;;;3.10;99.90;;;;;;5029132;28;20037;-93
2023/11/28 09:13:17;;;;;;;2.80;2.60;;;3.10;99.90;;;;;;5052231;28;20491;-93
2023/11/28 09:15:45;;;;;;;1.65;1.55;;;3.10;99.90;;;;;;5048357;28;20049;-93
2023/11/28 09:18:23;;;;;;;1.50;1.50;;;3.20;99.90;;;;;;5053094;28;20020;-92
2023/11/28 09:20:48;;;;;;;2.05;1.95;;;3.20;99.90;;;;;;5050785;28;20025;-93
2023/11/28 09:23:20;;;;;;;1.63;1.52;;;3.20;99.90;;;;;;5048157;28;20108;-92
2023/11/28 09:25:48;;;;;;;1.60;1.50;;;3.20;99.90;;;;;;5029518;28;20496;-92
2023/11/28 09:28:17;;;;;;;2.05;1.95;;;3.20;99.90;;;;;;5050664;28;20044;-92
2023/11/28 09:30:42;;;;;;;1.08;1.08;;;3.20;99.90;;;;;;5048188;28;20070;-93
2023/11/28 09:33:11;;;;;;;1.48;1.40;;;3.20;99.90;;;;;;5051457;28;20147;-92
2023/11/28 09:35:45;;;;;;;1.35;1.25;;;3.20;99.90;;;;;;5030362;28;20033;-93
2023/11/28 09:38:24;;;;;;;1.52;1.42;;;3.10;99.90;;;;;;5050243;28;20033;-93
2023/11/28 09:40:53;;;;;;;2.78;2.63;;;3.20;99.90;;;;;;5030644;28;20033;-93
2023/11/28 09:43:25;;;;;;;1.63;1.52;;;3.20;99.90;;;;;;5051172;28;20049;-93
2023/11/28 09:45:57;;;;;;;2.05;1.95;;;3.10;99.90;;;;;;5048082;28;20515;-92
2023/11/28 09:48:30;;;;;;;3.58;3.28;;;3.10;99.90;;;;;;5048901;28;20032;-92
2023/11/28 09:50:59;;;;;;;2.35;2.25;;;3.10;99.90;;;;;;5029195;28;20025;-93
2023/11/28 09:53:44;;;;;;;2.78;2.67;;;3.10;99.90;;;;;;5032043;28;20036;-92
2023/11/28 09:56:19;;;;;;;1.15;1.15;;;3.10;99.90;;;;;;5027661;28;20062;-90
2023/11/28 09:58:52;;;;;;;1.63;1.52;;;3.10;99.90;;;;;;5053172;28;20108;-94
2023/11/28 10:01:21;;;;;;;1.85;1.75;;;3.10;99.90;;;;;;5050122;28;20055;-93
2023/11/28 10:03:50;;;;;;;2.47;2.38;;;3.00;99.90;;;;;;5049460;28;20025;-93
2023/11/28 10:06:20;;;;;;;1.73;1.63;;;3.00;99.90;;;;;;5048169;28;20062;-93
2023/11/28 10:08:49;;;;;;;2.95;2.75;;;3.00;99.90;;;;;;5033536;28;20121;-93
2023/11/28 10:11:18;;;;;;;3.03;2.92;;;3.00;99.90;;;;;;5050390;28;20032;-93
2023/11/28 10:13:50;;;;;;;1.73;1.63;;;3.00;99.90;;;;;;5046778;28;20082;-92
2023/11/28 10:16:46;;;;;;;1.67;1.58;;;3.00;99.90;;;;;;5047470;28;20473;-95
2023/11/28 10:19:13;;;;;;;2.15;2.05;;;3.00;99.90;;;;;;5051490;28;20106;-93
2023/11/28 10:21:50;;;;;;;2.17;2.08;;;3.00;99.90;;;;;;5051854;28;20025;-92
2023/11/28 10:24:30;;;;;;;2.47;2.33;;;3.00;99.90;;;;;;5048558;28;20040;-93
2023/11/28 10:27:58;;;;;;;2.47;2.35;;;3.00;99.90;;;;;;5045552;28;20013;-92
2023/11/28 10:30:27;;;;;;;2.47;2.35;;;3.00;99.90;;;;;;5039889;28;20024;-93
2023/11/28 10:33:29;;;;;;;3.25;3.00;;;3.00;99.90;;;;;;5029013;28;20029;-94
2023/11/28 10:35:58;;;;;;;2.28;2.08;;;3.00;99.90;;;;;;5046408;28;20046;-93
2023/11/28 10:38:27;;;;;;;2.38;2.28;;;2.90;99.90;;;;;;5029264;28;20518;-93
2023/11/28 10:41:03;;;;;;;2.88;2.67;;;2.90;99.90;;;;;;5032624;28;20037;-92
2023/11/28 10:43:45;;;;;;;2.08;1.88;;;2.90;99.90;;;;;;5032990;28;20028;-94
2023/11/28 10:46:40;;;;;;;2.97;2.78;;;2.90;99.90;;;;;;5028356;28;20525;-92
2023/11/28 10:49:08;;;;;;;3.03;2.83;;;2.90;99.90;;;;;;5031556;28;20166;-93
2023/11/28 10:51:44;;;;;;;2.83;2.63;;;2.80;99.90;;;;;;5049855;28;20048;-93
2023/11/28 10:54:11;;;;;;;3.33;3.03;;;2.80;99.90;;;;;;5029772;28;20036;-93
2023/11/28 10:57:08;;;;;;;3.35;3.20;;;2.90;99.90;;;;;;5047524;28;20033;-93
2023/11/28 10:59:46;;;;;;;3.13;2.92;;;2.80;99.90;;;;;;5033903;28;20029;-94
2023/11/28 11:05:12;;;;;;;2.95;2.75;;;2.80;99.90;;;;;;5047613;28;20032;-93
2023/11/28 11:07:38;;;;;;;2.55;2.35;;;2.80;99.90;;;;;;5049632;28;20076;-93
2023/11/28 11:10:08;;;;;;;2.38;2.17;;;2.80;99.90;;;;;;5031464;28;20061;-92
2023/11/28 11:12:37;;;;;;;3.05;2.47;;;2.90;99.90;;;;;;5052042;28;20155;-92
2023/11/28 11:15:24;;;;;;;4.47;4.28;;;2.90;99.90;;;;;;5048549;28;20025;-92
2023/11/28 11:18:37;;;;;;;;;;;;;;;;;;;;;
2023/11/28 11:21:25;;;;;;;;;;;2.80;99.90;;;;;;5050857;28;20097;-93
2023/11/28 11:24:10;;;;;;;;;;;;;;;;;;;;;
2023/11/28 11:26:46;;;;;;;2.30;2.17;;;2.80;99.90;;;;;;5066513;22;20117;-92
2023/11/28 11:29:24;;;;;;;3.55;3.35;;;2.70;99.90;;;;;;4990136;28;20022;-93
2023/11/28 11:31:50;;;;;;;2.83;2.63;;;2.70;99.90;;;;;;4994707;28;20034;-91
2023/11/28 11:34:46;;;;;;;3.45;2.92;;;2.70;99.90;;;;;;5001256;28;20046;-91
2023/11/28 11:37:13;;;;;;;3.13;2.92;;;2.70;99.90;;;;;;4994179;28;20033;-94
2023/11/28 11:39:46;;;;;;;3.30;3.10;;;2.70;99.90;;;;;;5016909;28;20025;-94
2023/11/28 11:42:41;;;;;;;4.15;3.95;;;2.70;99.90;;;;;;4996362;28;20022;-93
2023/11/28 11:45:10;;;;;;;2.92;2.65;;;2.70;99.90;;;;;;4988390;28;20080;-93
2023/11/28 11:47:36;;;;;;;3.05;2.85;;;2.80;99.90;;;;;;5006854;28;20045;-92
2023/11/28 11:50:09;;;;;;;3.33;3.13;;;2.80;99.90;;;;;;5001927;28;20034;-93
2023/11/28 11:52:35;;;;;;;3.17;2.97;;;2.80;99.90;;;;;;5009599;28;20037;-91
2023/11/28 11:55:12;;;;;;;3.08;2.88;;;2.80;99.90;;;;;;5016154;28;20022;-90
2023/11/28 11:57:38;;;;;;;3.25;3.05;;;2.90;99.90;;;;;;4998996;28;20546;-93
2023/11/28 12:00:10;;;;;;;2.85;2.65;;;2.90;99.90;;;;;;4994886;28;20030;-92
2023/11/28 12:02:49;;;;;;;5.45;3.92;;;2.90;99.80;;;;;;4990178;28;20053;-93
2023/11/28 12:05:15;;;;;;;5.05;4.65;;;2.90;99.60;;;;;;4990068;28;20023;-91
2023/11/28 12:07:44;;;;;;;3.70;3.50;;;2.80;99.50;;;;;;5015543;28;20045;-93
2023/11/28 12:10:15;;;;;;;8.55;8.05;;;2.90;99.90;;;;;;4997720;28;20033;-91
2023/11/28 12:12:44;;;;;;;3.08;2.88;;;2.90;99.90;;;;;;5003135;28;20104;-89
2023/11/28 12:15:10;;;;;;;6.70;6.25;;;2.80;99.90;;;;;;4993336;28;20049;-92
2023/11/28 12:17:38;;;;;;;16.20;11.02;;;2.90;99.90;;;;;;4991134;28;20026;-92
2023/11/28 12:20:04;;;;;;;6.60;6.10;;;2.80;99.90;;;;;;5012083;28;20026;-92
2023/11/28 12:22:34;;;;;;;19.48;13.90;;;2.90;99.90;;;;;;4999876;28;20045;-93
2023/11/28 12:25:00;;;;;;;29.73;21.60;;;2.90;99.90;;;;;;4991309;28;20053;-91
2023/11/28 12:27:35;;;;;;;13.70;12.52;;;2.90;99.90;;;;;;4995198;28;20085;-91
2023/11/28 12:30:00;;;;;;;;;;;2.90;99.90;;;;;;5000400;28;20411;-91
2023/11/28 12:32:27;;;;;;;4.22;3.83;;;2.90;99.90;;;;;;5015103;28;19956;-92
2023/11/28 12:34:56;;;;;;;5.05;4.65;;;3.00;99.90;;;;;;4998992;28;20555;-91
2023/11/28 12:37:22;;;;;;;3.78;2.75;;;2.90;99.90;;;;;;5010342;28;20022;-91
2023/11/28 12:39:54;;;;;;;6.38;5.78;;;2.90;99.90;;;;;;5005960;28;20026;-91
2023/11/28 12:42:25;;;;;;;5.22;4.82;;;2.80;99.20;;;;;;4982137;28;20065;-91
2023/11/28 12:44:51;;;;;;;5.35;4.95;;;2.90;99.90;;;;;;5010430;28;20026;-91
2023/11/28 12:47:17;;;;;;;16.48;14.85;;;2.80;99.50;;;;;;4996523;28;20032;-93
2023/11/28 12:49:46;;;;;;;7.47;6.88;;;2.80;98.60;;;;;;5020501;28;20029;-92
2023/11/28 12:52:20;;;;;;;5.25;4.82;;;2.80;99.50;;;;;;5010956;28;20034;-92
2023/11/28 12:55:42;;;;;;;5.47;4.97;;;2.80;99.60;;;;;;5010252;28;20025;-92
2023/11/28 12:58:13;;;;;;;9.77;8.98;;;2.70;99.90;;;;;;5013008;28;20027;-92
2023/11/28 13:00:48;;;;;;;8.25;7.63;;;2.70;99.90;;;;;;5000996;28;20052;-92
2023/11/28 13:03:50;;;;;;;5.30;4.80;;;2.70;99.90;;;;;;4997669;28;20014;-92
2023/11/28 13:06:18;;;;;;;4.03;3.67;;;2.60;99.90;;;;;;5021573;28;20026;-91
2023/11/28 13:08:47;;;;;;;4.68;3.80;;;2.70;99.90;;;;;;5008148;28;20038;-92
2023/11/28 13:11:16;;;;;;;4.57;4.18;;;2.70;99.90;;;;;;4995230;28;20037;-91
2023/11/28 13:13:46;;;;;;;4.63;4.18;;;2.70;99.90;;;;;;5007951;28;20489;-91
2023/11/28 13:16:12;;;;;;;19.70;15.27;;;2.70;99.90;;;;;;5000792;28;20038;-93
2023/11/28 13:18:38;;;;;;;6.03;5.35;;;2.70;99.90;;;;;;5020405;28;20022;-92